sensor_id;sensor_type;location;lat;lon;timestamp;temperature;humidity
10443;DHT22;5269;51.146;16.986;2024-03-23T00:54:27;10.20;99.90
10443;DHT22;5269;51.146;16.986;2024-03-23T00:56:54;10.20;99.90
10443;DHT22;5269;51.146;16.986;2024-03-23T00:59:23;10.20;99.90
10443;DHT22;5269;51.146;16.986;2024-03-23T01:01:52;10.10;99.90
10443;DHT22;5269;51.146;16.986;2024-03-23T01:04:20;10.10;99.90
10443;DHT22;5269;51.146;16.986;2024-03-23T01:06:47;10.10;99.90
10443;DHT22;5269;51.146;16.986;2024-03-23T01:09:15;10.20;99.90
10443;DHT22;5269;51.146;16.986;2024-03-23T01:11:43;10.10;99.90
10443;DHT22;5269;51.146;16.986;2024-03-23T01:14:11;10.10;99.90
10443;DHT22;5269;51.146;16.986;2024-03-23T01:16:38;10.10;99.90
10443;DHT22;5269;51.146;16.986;2024-03-23T01:19:07;10.10;99.90
10443;DHT22;5269;51.146;16.986;2024-03-23T01:21:35;10.10;99.90
10443;DHT22;5269;51.146;16.986;2024-03-23T01:24:03;10.10;99.90
10443;DHT22;5269;51.146;16.986;2024-03-23T01:26:30;10.10;99.90
10443;DHT22;5269;51.146;16.986;2024-03-23T01:28:57;10.10;99.90
10443;DHT22;5269;51.146;16.986;2024-03-23T01:31:24;10.10;99.90
10443;DHT22;5269;51.146;16.986;2024-03-23T01:33:52;10.10;99.90
10443;DHT22;5269;51.146;16.986;2024-03-23T01:36:22;10.10;99.90
10443;DHT22;5269;51.146;16.986;2024-03-23T01:38:50;10.10;99.90
10443;DHT22;5269;51.146;16.986;2024-03-23T01:41:17;10.10;99.90
10443;DHT22;5269;51.146;16.986;2024-03-23T01:44:05;10.20;99.90
10443;DHT22;5269;51.146;16.986;2024-03-23T01:46:33;10.10;99.90
10443;DHT22;5269;51.146;16.986;2024-03-23T01:49:00;10.10;99.90
10443;DHT22;5269;51.146;16.986;2024-03-23T01:51:31;10.00;99.90
10443;DHT22;5269;51.146;16.986;2024-03-23T01:54:02;10.00;99.90
10443;DHT22;5269;51.146;16.986;2024-03-23T01:56:29;9.90;99.90
10443;DHT22;5269;51.146;16.986;2024-03-23T01:58:56;10.00;99.90
10443;DHT22;5269;51.146;16.986;2024-03-23T02:01:23;10.00;99.90
10443;DHT22;5269;51.146;16.986;2024-03-23T02:03:50;10.00;99.90
10443;DHT22;5269;51.146;16.986;2024-03-23T02:06:17;10.00;99.90
10443;DHT22;5269;51.146;16.986;2024-03-23T02:08:48;10.00;99.90
10443;DHT22;5269;51.146;16.986;2024-03-23T02:11:15;10.00;99.90
10443;DHT22;5269;51.146;16.986;2024-03-23T02:13:42;10.10;99.90
10443;DHT22;5269;51.146;16.986;2024-03-23T02:16:09;10.10;99.90
10443;DHT22;5269;51.146;16.986;2024-03-23T02:18:36;10.10;99.90
10443;DHT22;5269;51.146;16.986;2024-03-23T02:21:04;10.20;99.90
10443;DHT22;5269;51.146;16.986;2024-03-23T02:23:34;10.20;99.90
10443;DHT22;5269;51.146;16.986;2024-03-23T02:26:02;10.10;99.90
10443;DHT22;5269;51.146;16.986;2024-03-23T02:28:29;10.20;99.90
10443;DHT22;5269;51.146;16.986;2024-03-23T02:30:56;10.20;99.90
10443;DHT22;5269;51.146;16.986;2024-03-23T02:33:23;10.10;99.90
10443;DHT22;5269;51.146;16.986;2024-03-23T02:35:50;10.10;99.90
10443;DHT22;5269;51.146;16.986;2024-03-23T02:38:17;10.10;99.90
10443;DHT22;5269;51.146;16.986;2024-03-23T02:40:50;10.10;99.90
10443;DHT22;5269;51.146;16.986;2024-03-23T02:43:18;10.10;99.90
10443;DHT22;5269;51.146;16.986;2024-03-23T02:45:45;10.10;99.90
10443;DHT22;5269;51.146;16.986;2024-03-23T02:48:12;10.10;99.90
10443;DHT22;5269;51.146;16.986;2024-03-23T02:50:39;10.10;99.90
10443;DHT22;5269;51.146;16.986;2024-03-23T02:53:06;10.10;99.90
10443;DHT22;5269;51.146;16.986;2024-03-23T02:55:33;10.10;99.90
10443;DHT22;5269;51.146;16.986;2024-03-23T02:58:03;10.10;99.90
10443;DHT22;5269;51.146;16.986;2024-03-23T03:00:30;10.10;99.90
10443;DHT22;5269;51.146;16.986;2024-03-23T03:02:57;10.10;99.90
10443;DHT22;5269;51.146;16.986;2024-03-23T03:05:24;10.20;99.90
10443;DHT22;5269;51.146;16.986;2024-03-23T03:07:51;10.10;99.90
10443;DHT22;5269;51.146;16.986;2024-03-23T03:10:18;10.10;99.90
10443;DHT22;5269;51.146;16.986;2024-03-23T03:12:45;10.10;99.90
10443;DHT22;5269;51.146;16.986;2024-03-23T03:15:15;10.10;99.90
10443;DHT22;5269;51.146;16.986;2024-03-23T03:17:42;10.10;99.90
10443;DHT22;5269;51.146;16.986;2024-03-23T03:20:09;10.00;99.90
10443;DHT22;5269;51.146;16.986;2024-03-23T03:22:39;10.10;99.90
10443;DHT22;5269;51.146;16.986;2024-03-23T03:25:06;10.00;99.90
10443;DHT22;5269;51.146;16.986;2024-03-23T03:27:33;10.00;99.90
10443;DHT22;5269;51.146;16.986;2024-03-23T03:30:01;10.00;99.90
10443;DHT22;5269;51.146;16.986;2024-03-23T03:32:32;10.00;99.90
10443;DHT22;5269;51.146;16.986;2024-03-23T03:34:59;10.00;99.90
10443;DHT22;5269;51.146;16.986;2024-03-23T03:37:26;10.00;99.90
10443;DHT22;5269;51.146;16.986;2024-03-23T03:39:54;9.90;99.90
10443;DHT22;5269;51.146;16.986;2024-03-23T03:42:21;9.90;99.90
10443;DHT22;5269;51.146;16.986;2024-03-23T03:44:48;9.90;99.90
10443;DHT22;5269;51.146;16.986;2024-03-23T03:47:15;9.90;99.90
10443;DHT22;5269;51.146;16.986;2024-03-23T03:49:45;9.90;99.90
10443;DHT22;5269;51.146;16.986;2024-03-23T03:52:12;9.90;99.90
10443;DHT22;5269;51.146;16.986;2024-03-23T03:54:42;9.90;99.90
10443;DHT22;5269;51.146;16.986;2024-03-23T03:57:09;9.90;99.90
10443;DHT22;5269;51.146;16.986;2024-03-23T03:59:36;9.90;99.90
10443;DHT22;5269;51.146;16.986;2024-03-23T04:02:03;10.00;99.90
10443;DHT22;5269;51.146;16.986;2024-03-23T04:04:31;10.00;99.90
10443;DHT22;5269;51.146;16.986;2024-03-23T04:07:04;9.90;99.90
10443;DHT22;5269;51.146;16.986;2024-03-23T04:09:32;9.90;99.90
10443;DHT22;5269;51.146;16.986;2024-03-23T04:11:59;9.90;99.90
10443;DHT22;5269;51.146;16.986;2024-03-23T04:14:26;9.90;99.90
10443;DHT22;5269;51.146;16.986;2024-03-23T04:16:53;9.80;99.90
10443;DHT22;5269;51.146;16.986;2024-03-23T04:19:20;9.80;99.90
10443;DHT22;5269;51.146;16.986;2024-03-23T04:21:48;9.70;99.90
10443;DHT22;5269;51.146;16.986;2024-03-23T04:24:18;9.60;99.90
10443;DHT22;5269;51.146;16.986;2024-03-23T04:26:45;9.70;99.90
10443;DHT22;5269;51.146;16.986;2024-03-23T04:29:12;9.60;99.90
10443;DHT22;5269;51.146;16.986;2024-03-23T04:31:40;9.60;99.90
10443;DHT22;5269;51.146;16.986;2024-03-23T04:34:07;9.70;99.90
10443;DHT22;5269;51.146;16.986;2024-03-23T04:36:35;9.70;99.90
10443;DHT22;5269;51.146;16.986;2024-03-23T04:39:02;9.80;99.90
10443;DHT22;5269;51.146;16.986;2024-03-23T04:41:32;9.70;99.90
10443;DHT22;5269;51.146;16.986;2024-03-23T04:44:00;9.80;99.90
10443;DHT22;5269;51.146;16.986;2024-03-23T04:46:27;9.70;99.90
10443;DHT22;5269;51.146;16.986;2024-03-23T04:48:55;9.70;99.90
10443;DHT22;5269;51.146;16.986;2024-03-23T04:51:23;9.70;99.90
10443;DHT22;5269;51.146;16.986;2024-03-23T04:53:51;9.60;99.90
10443;DHT22;5269;51.146;16.986;2024-03-23T04:56:19;9.50;99.90
10443;DHT22;5269;51.146;16.986;2024-03-23T04:58:49;9.40;99.90
10443;DHT22;5269;51.146;16.986;2024-03-23T05:01:16;9.40;99.90
10443;DHT22;5269;51.146;16.986;2024-03-23T05:03:44;9.40;99.90
10443;DHT22;5269;51.146;16.986;2024-03-23T05:06:10;9.30;99.90
10443;DHT22;5269;51.146;16.986;2024-03-23T05:08:40;9.30;99.90
10443;DHT22;5269;51.146;16.986;2024-03-23T05:11:07;9.20;99.90
10443;DHT22;5269;51.146;16.986;2024-03-23T05:13:35;9.20;99.90
10443;DHT22;5269;51.146;16.986;2024-03-23T05:16:05;9.10;99.90
10443;DHT22;5269;51.146;16.986;2024-03-23T05:18:32;9.20;99.90
10443;DHT22;5269;51.146;16.986;2024-03-23T05:20:59;9.20;99.90
10443;DHT22;5269;51.146;16.986;2024-03-23T05:23:28;9.30;99.90
10443;DHT22;5269;51.146;16.986;2024-03-23T05:25:55;9.20;99.90
10443;DHT22;5269;51.146;16.986;2024-03-23T05:28:22;9.20;99.90
10443;DHT22;5269;51.146;16.986;2024-03-23T05:30:53;9.20;99.90
10443;DHT22;5269;51.146;16.986;2024-03-23T05:33:23;9.10;99.90
10443;DHT22;5269;51.146;16.986;2024-03-23T05:35:56;9.10;99.90
10443;DHT22;5269;51.146;16.986;2024-03-23T05:38:23;9.10;99.90
10443;DHT22;5269;51.146;16.986;2024-03-23T05:40:54;9.10;99.90
10443;DHT22;5269;51.146;16.986;2024-03-23T05:43:21;9.10;99.90
10443;DHT22;5269;51.146;16.986;2024-03-23T05:45:53;9.10;99.90
10443;DHT22;5269;51.146;16.986;2024-03-23T05:48:24;9.20;99.90
10443;DHT22;5269;51.146;16.986;2024-03-23T05:50:51;9.20;99.90
10443;DHT22;5269;51.146;16.986;2024-03-23T05:53:20;9.30;99.90
10443;DHT22;5269;51.146;16.986;2024-03-23T05:55:47;9.30;99.90
10443;DHT22;5269;51.146;16.986;2024-03-23T05:58:15;9.40;99.90
10443;DHT22;5269;51.146;16.986;2024-03-23T06:00:42;9.40;99.90
10443;DHT22;5269;51.146;16.986;2024-03-23T06:03:10;9.50;99.90
10443;DHT22;5269;51.146;16.986;2024-03-23T06:05:40;9.60;99.90
10443;DHT22;5269;51.146;16.986;2024-03-23T06:08:07;9.60;99.90
10443;DHT22;5269;51.146;16.986;2024-03-23T06:10:34;9.60;99.90
10443;DHT22;5269;51.146;16.986;2024-03-23T06:13:07;9.60;99.90
10443;DHT22;5269;51.146;16.986;2024-03-23T06:15:34;9.60;99.90
10443;DHT22;5269;51.146;16.986;2024-03-23T06:18:02;9.60;99.90
10443;DHT22;5269;51.146;16.986;2024-03-23T06:20:29;9.80;99.90
10443;DHT22;5269;51.146;16.986;2024-03-23T06:22:59;9.80;99.90
10443;DHT22;5269;51.146;16.986;2024-03-23T06:25:26;9.80;99.90
10443;DHT22;5269;51.146;16.986;2024-03-23T06:27:54;9.80;99.90
10443;DHT22;5269;51.146;16.986;2024-03-23T06:30:21;9.80;99.90
10443;DHT22;5269;51.146;16.986;2024-03-23T06:32:49;9.70;99.90
10443;DHT22;5269;51.146;16.986;2024-03-23T06:35:19;9.70;99.90
10443;DHT22;5269;51.146;16.986;2024-03-23T06:37:46;9.80;99.90
10443;DHT22;5269;51.146;16.986;2024-03-23T06:40:16;9.70;99.90
10443;DHT22;5269;51.146;16.986;2024-03-23T06:42:44;9.90;99.90
10443;DHT22;5269;51.146;16.986;2024-03-23T06:45:11;9.70;99.90
10443;DHT22;5269;51.146;16.986;2024-03-23T06:47:38;9.80;99.90
10443;DHT22;5269;51.146;16.986;2024-03-23T06:50:06;9.80;99.90
10443;DHT22;5269;51.146;16.986;2024-03-23T06:52:33;9.80;99.90
10443;DHT22;5269;51.146;16.986;2024-03-23T06:55:04;9.80;99.90
10443;DHT22;5269;51.146;16.986;2024-03-23T06:57:34;9.80;99.90
10443;DHT22;5269;51.146;16.986;2024-03-23T07:00:02;10.00;99.90
10443;DHT22;5269;51.146;16.986;2024-03-23T07:02:29;10.30;99.90
10443;DHT22;5269;51.146;16.986;2024-03-23T07:04:56;10.50;99.90
10443;DHT22;5269;51.146;16.986;2024-03-23T07:07:23;10.50;99.90
10443;DHT22;5269;51.146;16.986;2024-03-23T07:09:50;10.50;99.90
10443;DHT22;5269;51.146;16.986;2024-03-23T07:12:18;10.70;99.90
10443;DHT22;5269;51.146;16.986;2024-03-23T07:14:47;10.90;99.90
10443;DHT22;5269;51.146;16.986;2024-03-23T07:17:14;11.00;99.90
10443;DHT22;5269;51.146;16.986;2024-03-23T07:19:42;11.20;94.80
10443;DHT22;5269;51.146;16.986;2024-03-23T07:22:09;11.40;1.00
10443;DHT22;5269;51.146;16.986;2024-03-23T07:24:37;11.60;1.00
10443;DHT22;5269;51.146;16.986;2024-03-23T07:27:04;11.70;99.90
10443;DHT22;5269;51.146;16.986;2024-03-23T07:29:31;11.80;1.00
10443;DHT22;5269;51.146;16.986;2024-03-23T07:32:01;11.90;99.90
10443;DHT22;5269;51.146;16.986;2024-03-23T07:34:29;12.10;1.00
10443;DHT22;5269;51.146;16.986;2024-03-23T07:36:56;12.30;99.90
10443;DHT22;5269;51.146;16.986;2024-03-23T07:39:24;12.30;1.00
10443;DHT22;5269;51.146;16.986;2024-03-23T07:41:51;12.40;3.40
10443;DHT22;5269;51.146;16.986;2024-03-23T07:44:18;12.60;47.40
10443;DHT22;5269;51.146;16.986;2024-03-23T07:46:45;12.70;1.00
10443;DHT22;5269;51.146;16.986;2024-03-23T07:49:15;12.90;1.00
10443;DHT22;5269;51.146;16.986;2024-03-23T07:51:42;12.90;1.00
10443;DHT22;5269;51.146;16.986;2024-03-23T07:54:09;13.20;1.00
10443;DHT22;5269;51.146;16.986;2024-03-23T07:56:36;13.20;1.00
10443;DHT22;5269;51.146;16.986;2024-03-23T07:59:03;13.30;1.00
10443;DHT22;5269;51.146;16.986;2024-03-23T08:01:30;13.30;99.90
10443;DHT22;5269;51.146;16.986;2024-03-23T08:03:58;13.60;1.00
10443;DHT22;5269;51.146;16.986;2024-03-23T08:06:28;13.50;30.00
10443;DHT22;5269;51.146;16.986;2024-03-23T08:08:56;13.50;1.00
10443;DHT22;5269;51.146;16.986;2024-03-23T08:11:26;13.60;99.90
10443;DHT22;5269;51.146;16.986;2024-03-23T08:13:53;13.70;99.90
10443;DHT22;5269;51.146;16.986;2024-03-23T08:16:21;13.80;99.90
10443;DHT22;5269;51.146;16.986;2024-03-23T08:18:48;13.90;1.00
10443;DHT22;5269;51.146;16.986;2024-03-23T08:21:17;13.60;1.00
10443;DHT22;5269;51.146;16.986;2024-03-23T08:23:47;13.70;21.70
10443;DHT22;5269;51.146;16.986;2024-03-23T08:26:16;13.90;99.90
10443;DHT22;5269;51.146;16.986;2024-03-23T09:05:49;14.60;54.50
10443;DHT22;5269;51.146;16.986;2024-03-23T09:08:16;14.50;99.90
10443;DHT22;5269;51.146;16.986;2024-03-23T09:10:43;14.50;99.90
10443;DHT22;5269;51.146;16.986;2024-03-23T09:13:11;14.50;99.90
10443;DHT22;5269;51.146;16.986;2024-03-23T09:15:47;14.30;99.90
10443;DHT22;5269;51.146;16.986;2024-03-23T09:18:14;14.20;99.90
10443;DHT22;5269;51.146;16.986;2024-03-23T09:20:42;14.20;99.90
10443;DHT22;5269;51.146;16.986;2024-03-23T09:23:10;14.00;99.90
10443;DHT22;5269;51.146;16.986;2024-03-23T09:25:37;14.00;99.90
10443;DHT22;5269;51.146;16.986;2024-03-23T09:28:05;14.20;99.90
10443;DHT22;5269;51.146;16.986;2024-03-23T09:30:33;14.00;99.90
10443;DHT22;5269;51.146;16.986;2024-03-23T09:33:06;14.10;99.90
10443;DHT22;5269;51.146;16.986;2024-03-23T09:35:36;14.20;99.90
10443;DHT22;5269;51.146;16.986;2024-03-23T09:38:04;13.90;1.00
10443;DHT22;5269;51.146;16.986;2024-03-23T09:40:31;13.90;1.00
10443;DHT22;5269;51.146;16.986;2024-03-23T09:42:58;14.10;99.90
10443;DHT22;5269;51.146;16.986;2024-03-23T09:45:27;14.00;1.00
10443;DHT22;5269;51.146;16.986;2024-03-23T09:47:55;14.00;99.90
10443;DHT22;5269;51.146;16.986;2024-03-23T09:50:25;14.00;1.00
10443;DHT22;5269;51.146;16.986;2024-03-23T09:52:52;14.00;1.00
10443;DHT22;5269;51.146;16.986;2024-03-23T09:55:19;14.10;1.00
10443;DHT22;5269;51.146;16.986;2024-03-23T09:57:46;14.10;99.90
10443;DHT22;5269;51.146;16.986;2024-03-23T10:00:15;14.30;99.90
10443;DHT22;5269;51.146;16.986;2024-03-23T10:02:43;14.60;99.90
10443;DHT22;5269;51.146;16.986;2024-03-23T10:10:18;15.20;99.90
10443;DHT22;5269;51.146;16.986;2024-03-23T10:12:46;14.80;99.90
10443;DHT22;5269;51.146;16.986;2024-03-23T10:15:22;15.20;99.90
10443;DHT22;5269;51.146;16.986;2024-03-23T10:17:50;15.30;99.90
10443;DHT22;5269;51.146;16.986;2024-03-23T10:20:19;15.60;99.90
10443;DHT22;5269;51.146;16.986;2024-03-23T10:22:50;15.80;99.90
10443;DHT22;5269;51.146;16.986;2024-03-23T12:38:06;16.00;1.00
10443;DHT22;5269;51.146;16.986;2024-03-23T12:41:00;15.90;1.00
10443;DHT22;5269;51.146;16.986;2024-03-23T12:43:29;15.80;1.00
10443;DHT22;5269;51.146;16.986;2024-03-23T12:46:18;15.70;1.00
10443;DHT22;5269;51.146;16.986;2024-03-23T12:48:48;15.60;1.00
10443;DHT22;5269;51.146;16.986;2024-03-23T12:51:15;15.40;1.00
10443;DHT22;5269;51.146;16.986;2024-03-23T12:53:42;15.30;1.00
10443;DHT22;5269;51.146;16.986;2024-03-23T12:56:11;15.30;1.00
10443;DHT22;5269;51.146;16.986;2024-03-23T12:58:39;15.30;1.00
10443;DHT22;5269;51.146;16.986;2024-03-23T13:01:06;15.30;1.00
10443;DHT22;5269;51.146;16.986;2024-03-23T13:03:36;15.20;1.00
10443;DHT22;5269;51.146;16.986;2024-03-23T13:06:04;15.10;1.00
10443;DHT22;5269;51.146;16.986;2024-03-23T13:08:31;14.80;1.00
10443;DHT22;5269;51.146;16.986;2024-03-23T13:10:58;13.70;1.00
10443;DHT22;5269;51.146;16.986;2024-03-23T13:13:26;12.90;1.00
10443;DHT22;5269;51.146;16.986;2024-03-23T13:15:53;12.70;8.40
10443;DHT22;5269;51.146;16.986;2024-03-23T13:18:23;12.40;99.90
10443;DHT22;5269;51.146;16.986;2024-03-23T13:20:53;12.20;1.00
10443;DHT22;5269;51.146;16.986;2024-03-23T13:23:21;11.90;1.00
10443;DHT22;5269;51.146;16.986;2024-03-23T13:25:51;11.70;99.90
10443;DHT22;5269;51.146;16.986;2024-03-23T13:28:27;11.60;99.90
10443;DHT22;5269;51.146;16.986;2024-03-23T13:30:57;11.60;99.90
10443;DHT22;5269;51.146;16.986;2024-03-23T13:33:36;11.70;1.00
10443;DHT22;5269;51.146;16.986;2024-03-23T13:36:07;11.70;1.00
10443;DHT22;5269;51.146;16.986;2024-03-23T13:38:47;11.60;99.90
10443;DHT22;5269;51.146;16.986;2024-03-23T13:41:16;11.50;49.10
10443;DHT22;5269;51.146;16.986;2024-03-23T13:43:43;11.70;98.80
10443;DHT22;5269;51.146;16.986;2024-03-23T13:46:13;11.70;1.00
10443;DHT22;5269;51.146;16.986;2024-03-23T13:48:41;11.40;58.20
10443;DHT22;5269;51.146;16.986;2024-03-23T13:51:11;11.50;99.30
10443;DHT22;5269;51.146;16.986;2024-03-23T13:53:38;11.10;1.00
10443;DHT22;5269;51.146;16.986;2024-03-23T13:56:07;10.60;1.00
10443;DHT22;5269;51.146;16.986;2024-03-23T13:58:34;10.50;99.90
10443;DHT22;5269;51.146;16.986;2024-03-23T14:01:01;10.10;99.90
10443;DHT22;5269;51.146;16.986;2024-03-23T14:03:28;9.80;1.00
10443;DHT22;5269;51.146;16.986;2024-03-23T14:05:58;9.80;99.90
10443;DHT22;5269;51.146;16.986;2024-03-23T14:08:28;9.60;1.00
10443;DHT22;5269;51.146;16.986;2024-03-23T14:10:57;9.20;99.90
10443;DHT22;5269;51.146;16.986;2024-03-23T14:13:24;9.10;1.00
10443;DHT22;5269;51.146;16.986;2024-03-23T14:15:53;9.10;1.00
10443;DHT22;5269;51.146;16.986;2024-03-23T14:18:20;9.00;99.90
10443;DHT22;5269;51.146;16.986;2024-03-23T14:20:47;9.00;99.90
10443;DHT22;5269;51.146;16.986;2024-03-23T14:23:15;8.90;30.20
10443;DHT22;5269;51.146;16.986;2024-03-23T14:25:45;8.50;1.00
10443;DHT22;5269;51.146;16.986;2024-03-23T14:28:14;8.40;99.90
10443;DHT22;5269;51.146;16.986;2024-03-23T14:30:45;8.20;1.00
10443;DHT22;5269;51.146;16.986;2024-03-23T14:33:12;7.90;99.90
10443;DHT22;5269;51.146;16.986;2024-03-23T14:35:41;7.90;99.90
10443;DHT22;5269;51.146;16.986;2024-03-23T14:38:09;7.90;1.00
10443;DHT22;5269;51.146;16.986;2024-03-23T14:40:35;7.80;1.00
10443;DHT22;5269;51.146;16.986;2024-03-23T14:43:06;7.70;99.90
10443;DHT22;5269;51.146;16.986;2024-03-23T14:45:33;7.70;99.90
10443;DHT22;5269;51.146;16.986;2024-03-23T14:48:01;7.70;99.90
10443;DHT22;5269;51.146;16.986;2024-03-23T14:50:35;7.60;1.00
10443;DHT22;5269;51.146;16.986;2024-03-23T14:53:03;7.40;1.00
10443;DHT22;5269;51.146;16.986;2024-03-23T14:55:30;7.50;1.00
10443;DHT22;5269;51.146;16.986;2024-03-23T14:57:57;7.50;99.90
10443;DHT22;5269;51.146;16.986;2024-03-23T15:00:27;7.40;99.90
10443;DHT22;5269;51.146;16.986;2024-03-23T15:02:54;7.40;1.00
10443;DHT22;5269;51.146;16.986;2024-03-23T15:05:21;7.30;1.00
10443;DHT22;5269;51.146;16.986;2024-03-23T15:07:49;7.20;1.00
10443;DHT22;5269;51.146;16.986;2024-03-23T15:10:16;7.20;99.90
10443;DHT22;5269;51.146;16.986;2024-03-23T15:12:45;7.00;99.90
10443;DHT22;5269;51.146;16.986;2024-03-23T15:15:12;7.00;1.00
10443;DHT22;5269;51.146;16.986;2024-03-23T15:17:42;7.00;99.90
10443;DHT22;5269;51.146;16.986;2024-03-23T15:20:10;6.90;1.00
10443;DHT22;5269;51.146;16.986;2024-03-23T15:22:38;6.80;1.00
10443;DHT22;5269;51.146;16.986;2024-03-23T15:25:05;6.70;1.00
10443;DHT22;5269;51.146;16.986;2024-03-23T15:27:32;6.60;1.00
10443;DHT22;5269;51.146;16.986;2024-03-23T15:30:00;6.60;35.60
10443;DHT22;5269;51.146;16.986;2024-03-23T15:32:27;6.60;1.00
10443;DHT22;5269;51.146;16.986;2024-03-23T15:34:57;6.50;99.90
10443;DHT22;5269;51.146;16.986;2024-03-23T16:21:40;6.50;1.00
10443;DHT22;5269;51.146;16.986;2024-03-23T16:24:07;6.60;1.00
10443;DHT22;5269;51.146;16.986;2024-03-23T16:26:37;6.40;1.00
10443;DHT22;5269;51.146;16.986;2024-03-23T16:29:04;6.40;1.00
10443;DHT22;5269;51.146;16.986;2024-03-23T16:31:31;6.50;1.00
10443;DHT22;5269;51.146;16.986;2024-03-23T16:33:58;6.40;1.00
10443;DHT22;5269;51.146;16.986;2024-03-23T16:36:25;6.50;1.00
10443;DHT22;5269;51.146;16.986;2024-03-23T16:38:53;6.60;1.00
10443;DHT22;5269;51.146;16.986;2024-03-23T16:41:20;6.40;1.00
10443;DHT22;5269;51.146;16.986;2024-03-23T16:43:50;6.40;99.90
10443;DHT22;5269;51.146;16.986;2024-03-23T16:46:18;6.30;99.90
10443;DHT22;5269;51.146;16.986;2024-03-23T16:48:45;6.30;99.90
10443;DHT22;5269;51.146;16.986;2024-03-23T16:51:12;6.40;99.90
10443;DHT22;5269;51.146;16.986;2024-03-23T16:53:42;6.40;1.00
10443;DHT22;5269;51.146;16.986;2024-03-23T16:56:09;6.30;1.00
10443;DHT22;5269;51.146;16.986;2024-03-23T16:58:37;6.40;1.00
10443;DHT22;5269;51.146;16.986;2024-03-23T17:01:10;6.30;99.90
10443;DHT22;5269;51.146;16.986;2024-03-23T17:03:38;6.10;1.00
10443;DHT22;5269;51.146;16.986;2024-03-23T17:06:06;6.30;1.00
10443;DHT22;5269;51.146;16.986;2024-03-23T17:08:33;6.20;1.00
10443;DHT22;5269;51.146;16.986;2024-03-23T17:11:00;6.10;99.90
10443;DHT22;5269;51.146;16.986;2024-03-23T17:13:30;6.10;1.00
10443;DHT22;5269;51.146;16.986;2024-03-23T17:15:57;6.00;99.90
10443;DHT22;5269;51.146;16.986;2024-03-23T17:18:27;6.00;99.90
10443;DHT22;5269;51.146;16.986;2024-03-23T17:20:54;6.00;99.90
10443;DHT22;5269;51.146;16.986;2024-03-23T17:23:25;5.80;99.90
10443;DHT22;5269;51.146;16.986;2024-03-23T17:25:53;5.80;99.90
10443;DHT22;5269;51.146;16.986;2024-03-23T17:28:21;5.80;13.00
10443;DHT22;5269;51.146;16.986;2024-03-23T17:30:48;5.80;91.50
10443;DHT22;5269;51.146;16.986;2024-03-23T17:33:16;5.70;1.00
10443;DHT22;5269;51.146;16.986;2024-03-23T17:35:46;5.70;1.00
10443;DHT22;5269;51.146;16.986;2024-03-23T17:38:14;5.70;1.00
10443;DHT22;5269;51.146;16.986;2024-03-23T17:40:41;5.70;1.00
10443;DHT22;5269;51.146;16.986;2024-03-23T17:43:08;5.70;1.00
10443;DHT22;5269;51.146;16.986;2024-03-23T17:45:39;5.60;1.00
10443;DHT22;5269;51.146;16.986;2024-03-23T17:48:07;5.80;1.00
10443;DHT22;5269;51.146;16.986;2024-03-23T17:50:34;5.60;1.00
10443;DHT22;5269;51.146;16.986;2024-03-23T17:53:04;5.60;1.00
10443;DHT22;5269;51.146;16.986;2024-03-23T17:55:31;5.60;1.00
10443;DHT22;5269;51.146;16.986;2024-03-23T17:57:58;5.60;1.00
10443;DHT22;5269;51.146;16.986;2024-03-23T18:00:25;5.60;1.00
10443;DHT22;5269;51.146;16.986;2024-03-23T18:02:54;5.60;1.00
10443;DHT22;5269;51.146;16.986;2024-03-23T18:05:21;5.60;1.00
10443;DHT22;5269;51.146;16.986;2024-03-23T18:07:48;5.50;1.00
10443;DHT22;5269;51.146;16.986;2024-03-23T18:10:18;5.30;1.00
10443;DHT22;5269;51.146;16.986;2024-03-23T18:12:46;5.50;1.00
10443;DHT22;5269;51.146;16.986;2024-03-23T18:15:13;5.50;1.00
10443;DHT22;5269;51.146;16.986;2024-03-23T18:17:40;5.60;1.00
10443;DHT22;5269;51.146;16.986;2024-03-23T18:20:08;5.40;1.00
10443;DHT22;5269;51.146;16.986;2024-03-23T18:22:36;5.50;1.00
10443;DHT22;5269;51.146;16.986;2024-03-23T18:25:04;5.50;1.00
10443;DHT22;5269;51.146;16.986;2024-03-23T18:27:35;5.50;1.00
10443;DHT22;5269;51.146;16.986;2024-03-23T18:30:17;5.50;1.00
10443;DHT22;5269;51.146;16.986;2024-03-23T18:32:43;5.50;1.00
10443;DHT22;5269;51.146;16.986;2024-03-23T18:35:13;5.50;1.00
10443;DHT22;5269;51.146;16.986;2024-03-23T18:37:40;5.40;1.00
10443;DHT22;5269;51.146;16.986;2024-03-23T18:40:09;5.50;1.00
10443;DHT22;5269;51.146;16.986;2024-03-23T18:42:39;5.40;1.00
10443;DHT22;5269;51.146;16.986;2024-03-23T18:45:06;5.40;1.00
10443;DHT22;5269;51.146;16.986;2024-03-23T18:47:34;5.40;1.00
10443;DHT22;5269;51.146;16.986;2024-03-23T18:50:03;5.40;1.00
10443;DHT22;5269;51.146;16.986;2024-03-23T18:52:31;5.40;1.00
10443;DHT22;5269;51.146;16.986;2024-03-23T18:54:58;5.40;99.90
10443;DHT22;5269;51.146;16.986;2024-03-23T18:57:27;5.30;99.90
10443;DHT22;5269;51.146;16.986;2024-03-23T19:00:04;5.30;1.00
10443;DHT22;5269;51.146;16.986;2024-03-23T19:02:37;5.30;1.00
10443;DHT22;5269;51.146;16.986;2024-03-23T19:05:08;5.30;1.00
10443;DHT22;5269;51.146;16.986;2024-03-23T19:07:39;5.30;99.90
10443;DHT22;5269;51.146;16.986;2024-03-23T19:10:12;5.30;1.00
10443;DHT22;5269;51.146;16.986;2024-03-23T19:12:40;5.20;1.00
10443;DHT22;5269;51.146;16.986;2024-03-23T19:15:16;5.20;1.00
10443;DHT22;5269;51.146;16.986;2024-03-23T19:17:49;5.40;1.00
10443;DHT22;5269;51.146;16.986;2024-03-23T19:20:16;5.20;1.00
10443;DHT22;5269;51.146;16.986;2024-03-23T19:22:43;5.20;1.00
10443;DHT22;5269;51.146;16.986;2024-03-23T19:25:13;5.20;1.00
10443;DHT22;5269;51.146;16.986;2024-03-23T19:27:40;5.10;1.00
10443;DHT22;5269;51.146;16.986;2024-03-23T19:30:12;5.10;1.00
10443;DHT22;5269;51.146;16.986;2024-03-23T19:32:40;5.10;1.00
10443;DHT22;5269;51.146;16.986;2024-03-23T19:35:09;5.10;1.00
10443;DHT22;5269;51.146;16.986;2024-03-23T19:37:36;5.10;1.00
10443;DHT22;5269;51.146;16.986;2024-03-23T19:40:06;5.00;1.00
10443;DHT22;5269;51.146;16.986;2024-03-23T19:42:33;5.10;47.80
10443;DHT22;5269;51.146;16.986;2024-03-23T19:45:03;5.20;99.90
10443;DHT22;5269;51.146;16.986;2024-03-23T19:47:33;5.00;99.90
10443;DHT22;5269;51.146;16.986;2024-03-23T19:50:01;5.00;99.90
10443;DHT22;5269;51.146;16.986;2024-03-23T19:52:43;4.90;99.90
10443;DHT22;5269;51.146;16.986;2024-03-23T19:55:10;4.90;99.90
10443;DHT22;5269;51.146;16.986;2024-03-23T19:57:40;4.90;99.90
10443;DHT22;5269;51.146;16.986;2024-03-23T20:00:09;4.90;99.90
10443;DHT22;5269;51.146;16.986;2024-03-23T20:02:52;4.90;1.00
10443;DHT22;5269;51.146;16.986;2024-03-23T20:05:27;5.00;1.00
10443;DHT22;5269;51.146;16.986;2024-03-23T20:07:55;4.80;99.90
10443;DHT22;5269;51.146;16.986;2024-03-23T20:10:22;4.80;1.00
10443;DHT22;5269;51.146;16.986;2024-03-23T20:12:51;4.80;1.00
10443;DHT22;5269;51.146;16.986;2024-03-23T20:15:28;4.80;1.00
10443;DHT22;5269;51.146;16.986;2024-03-23T20:17:59;4.90;1.00
10443;DHT22;5269;51.146;16.986;2024-03-23T20:20:28;5.00;1.00
10443;DHT22;5269;51.146;16.986;2024-03-23T20:22:57;4.90;99.90
10443;DHT22;5269;51.146;16.986;2024-03-23T20:25:24;5.00;99.90